createdAt,value
2022-10-20T00:00:23.148Z,21.50
2022-10-20T00:03:46.517Z,21.50
2022-10-20T00:07:08.632Z,21.50
2022-10-20T00:10:31.369Z,21.50
2022-10-20T00:13:55.404Z,21.50
2022-10-20T00:17:17.625Z,21.50
2022-10-20T00:20:40.374Z,21.50
2022-10-20T00:24:03.759Z,21.50
2022-10-20T00:27:25.929Z,21.50
2022-10-20T00:30:48.068Z,21.50
2022-10-20T00:34:10.819Z,21.50
2022-10-20T00:37:33.239Z,21.50
2022-10-20T00:40:55.462Z,21.50
2022-10-20T00:44:55.684Z,21.50
2022-10-20T00:48:22.483Z,21.50
2022-10-20T00:51:44.969Z,21.50
2022-10-20T00:55:09.815Z,21.50
2022-10-20T00:58:34.465Z,21.50
2022-10-20T01:01:57.832Z,21.50
2022-10-20T01:05:20.258Z,21.50
2022-10-20T01:08:42.771Z,21.50
2022-10-20T01:12:28.597Z,21.50
2022-10-20T01:15:56.449Z,21.50
2022-10-20T01:19:37.289Z,21.50
2022-10-20T01:23:02.143Z,21.40
2022-10-20T01:26:52.046Z,21.50
2022-10-20T01:30:22.902Z,21.40
2022-10-20T01:33:49.835Z,21.40
2022-10-20T01:37:28.454Z,21.40
2022-10-20T01:41:26.794Z,21.40
2022-10-20T01:44:51.341Z,21.40
2022-10-20T01:48:16.836Z,21.40
2022-10-20T01:51:39.108Z,21.40
2022-10-20T01:55:01.362Z,21.40
2022-10-20T01:58:29.454Z,21.50
2022-10-20T02:02:23.216Z,21.40
2022-10-20T02:05:48.501Z,21.50
2022-10-20T02:09:18.090Z,21.40
2022-10-20T02:12:43.883Z,21.40
2022-10-20T02:16:12.914Z,21.50
2022-10-20T02:19:39.619Z,21.40
2022-10-20T02:23:04.124Z,21.40
2022-10-20T02:26:26.505Z,21.40
2022-10-20T02:30:13.781Z,21.40
2022-10-20T02:33:36.289Z,21.40
2022-10-20T02:36:59.168Z,21.40
2022-10-20T02:40:22.290Z,21.40
2022-10-20T02:43:44.417Z,21.40
2022-10-20T02:47:06.606Z,21.50
2022-10-20T02:50:28.801Z,21.40
2022-10-20T02:53:50.909Z,21.50
2022-10-20T02:57:13.149Z,21.40
2022-10-20T03:00:35.532Z,21.50
2022-10-20T03:03:59.748Z,21.50
2022-10-20T03:07:21.999Z,21.50
2022-10-20T03:10:44.294Z,21.50
2022-10-20T03:14:06.471Z,21.50
2022-10-20T03:17:28.649Z,21.40
2022-10-20T03:20:52.249Z,21.50
2022-10-20T03:24:14.594Z,21.50
2022-10-20T03:27:37.116Z,21.50
2022-10-20T03:30:59.994Z,21.50
2022-10-20T03:34:22.276Z,21.50
2022-10-20T03:37:44.434Z,21.50
2022-10-20T03:41:06.593Z,21.50
2022-10-20T03:44:28.778Z,21.50
2022-10-20T03:47:50.974Z,21.50
2022-10-20T03:51:14.211Z,21.40
2022-10-20T03:54:36.904Z,21.40
2022-10-20T03:57:59.131Z,21.40
2022-10-20T04:01:31.890Z,21.50
2022-10-20T04:04:54.115Z,21.40
2022-10-20T04:08:16.262Z,21.40
2022-10-20T04:11:38.694Z,21.40
2022-10-20T04:15:00.875Z,21.40
2022-10-20T04:18:23.117Z,21.40
2022-10-20T04:21:45.290Z,21.40
2022-10-20T04:25:08.211Z,21.40
2022-10-20T04:28:30.324Z,21.40
2022-10-20T04:31:52.481Z,21.40
2022-10-20T04:35:14.667Z,21.40
2022-10-20T04:38:36.832Z,21.40
2022-10-20T04:41:59.788Z,21.40
2022-10-20T04:45:21.917Z,21.40
2022-10-20T04:48:44.782Z,21.30
2022-10-20T04:52:06.983Z,21.30
2022-10-20T04:55:29.081Z,21.40
2022-10-20T04:58:53.523Z,21.40
2022-10-20T05:02:15.751Z,21.40
2022-10-20T05:05:37.880Z,21.40
2022-10-20T05:09:03.071Z,21.40
2022-10-20T05:12:25.422Z,21.40
2022-10-20T05:15:52.875Z,21.30
2022-10-20T05:19:15.129Z,21.40
2022-10-20T05:22:37.673Z,21.30
2022-10-20T05:26:08.223Z,21.40
2022-10-20T05:29:30.394Z,21.40
2022-10-20T05:32:52.550Z,21.30
2022-10-20T05:36:19.466Z,21.30
2022-10-20T05:39:43.651Z,21.30
2022-10-20T05:43:05.798Z,21.30
2022-10-20T05:46:31.611Z,21.30
2022-10-20T05:49:53.727Z,21.30
2022-10-20T05:53:15.894Z,21.30
2022-10-20T05:56:38.095Z,21.30
2022-10-20T06:00:00.277Z,21.40
2022-10-20T06:03:24.887Z,21.40
2022-10-20T06:06:51.943Z,21.40
2022-10-20T06:10:14.123Z,21.40
2022-10-20T06:13:36.427Z,21.50
2022-10-20T06:16:58.646Z,21.50
2022-10-20T06:20:20.752Z,21.40
2022-10-20T06:23:43.263Z,21.50
2022-10-20T06:27:05.427Z,21.50
2022-10-20T06:30:27.662Z,21.50
2022-10-20T06:33:50.531Z,21.50
2022-10-20T06:37:13.305Z,21.40
2022-10-20T06:40:35.496Z,21.40
2022-10-20T06:44:00.861Z,21.40
2022-10-20T06:47:23.065Z,21.40
2022-10-20T06:50:45.198Z,21.40
2022-10-20T06:54:07.742Z,21.40
2022-10-20T06:57:32.334Z,20.50
2022-10-20T07:01:13.059Z,20.60
2022-10-20T07:04:35.161Z,20.90
2022-10-20T07:07:57.364Z,21.10
2022-10-20T07:11:22.002Z,21.20
2022-10-20T07:14:44.098Z,21.30
2022-10-20T07:18:06.342Z,21.40
2022-10-20T07:21:32.494Z,21.40
2022-10-20T07:24:59.437Z,21.50
2022-10-20T07:28:21.835Z,21.50
2022-10-20T07:31:46.039Z,21.60
2022-10-20T07:35:08.409Z,21.60
2022-10-20T07:38:30.609Z,21.70
2022-10-20T07:41:52.815Z,21.70
2022-10-20T07:45:15.140Z,21.70
2022-10-20T07:48:38.133Z,21.80
2022-10-20T07:52:00.286Z,21.80
2022-10-20T07:55:38.009Z,21.80
2022-10-20T07:59:01.290Z,21.90
2022-10-20T08:02:23.726Z,21.90
2022-10-20T08:05:45.873Z,22.00
2022-10-20T08:09:08.432Z,22.10
2022-10-20T08:12:30.615Z,22.40
2022-10-20T08:15:54.759Z,22.70
2022-10-20T08:22:53.032Z,23.30
2022-10-20T08:26:20.526Z,23.80
2022-10-20T08:29:50.675Z,25.50
2022-10-20T08:33:22.149Z,27.20
2022-10-20T08:36:44.293Z,26.30
2022-10-20T08:40:06.884Z,25.00
2022-10-20T08:43:31.726Z,26.40
2022-10-20T08:46:54.602Z,28.90
2022-10-20T08:50:19.434Z,30.50
2022-10-20T08:53:41.482Z,31.20
2022-10-20T08:57:15.005Z,31.40
2022-10-20T09:00:38.633Z,31.40
2022-10-20T09:04:21.182Z,30.50
2022-10-20T09:07:43.277Z,27.20
2022-10-20T09:11:08.834Z,25.40
2022-10-20T09:14:33.701Z,24.40
2022-10-20T09:17:58.923Z,23.80
2022-10-20T09:21:22.541Z,23.30
2022-10-20T09:24:46.105Z,22.90
2022-10-20T09:28:26.896Z,22.60
2022-10-20T09:31:52.410Z,22.50
2022-10-20T09:35:22.758Z,22.40
2022-10-20T09:38:50.801Z,22.30
2022-10-20T09:42:30.139Z,22.30
2022-10-20T09:46:00.485Z,22.20
2022-10-20T09:49:30.496Z,22.20
2022-10-20T09:52:53.177Z,22.20
2022-10-20T09:56:34.234Z,22.20
2022-10-20T10:00:01.305Z,22.10
2022-10-20T10:03:52.926Z,22.10
2022-10-20T10:07:27.061Z,22.10
2022-10-20T10:11:12.772Z,22.10
2022-10-20T10:14:36.370Z,22.10
2022-10-20T10:17:59.285Z,22.10
2022-10-20T10:21:22.191Z,22.10
2022-10-20T10:24:47.087Z,22.10
2022-10-20T10:28:30.884Z,22.00
2022-10-20T10:31:59.560Z,22.00
2022-10-20T10:35:40.062Z,22.00
2022-10-20T10:39:04.629Z,22.00
2022-10-20T10:42:33.518Z,22.00
2022-10-20T10:46:08.638Z,22.00
2022-10-20T10:49:52.438Z,22.00
2022-10-20T10:53:36.677Z,22.00
2022-10-20T10:57:32.373Z,22.00
2022-10-20T11:01:10.885Z,22.00
2022-10-20T11:05:03.867Z,22.00
2022-10-20T11:08:48.025Z,22.00
2022-10-20T11:12:28.393Z,22.00
2022-10-20T11:16:05.608Z,22.00
2022-10-20T11:19:39.250Z,22.00
2022-10-20T11:23:17.154Z,22.00
2022-10-20T11:26:46.304Z,22.00
2022-10-20T11:30:34.585Z,22.00
2022-10-20T11:34:23.094Z,22.00
2022-10-20T11:38:03.209Z,22.00
2022-10-20T11:41:49.320Z,22.00
2022-10-20T11:45:38.722Z,22.00
2022-10-20T11:49:03.977Z,22.10
2022-10-20T11:52:38.482Z,22.10
2022-10-20T11:56:25.701Z,22.00
2022-10-20T11:59:53.745Z,22.00
2022-10-20T12:03:30.667Z,22.00
2022-10-20T12:07:29.569Z,22.00
2022-10-20T12:10:56.625Z,22.00
2022-10-20T12:14:27.721Z,22.00
2022-10-20T12:17:52.680Z,22.00
2022-10-20T12:22:13.226Z,22.00
2022-10-20T12:25:38.573Z,22.00
2022-10-20T12:29:20.036Z,22.00
2022-10-20T12:32:58.365Z,22.00
2022-10-20T12:36:34.021Z,22.00
2022-10-20T12:40:01.612Z,22.00
2022-10-20T12:43:33.907Z,22.00
2022-10-20T12:47:03.857Z,22.00
2022-10-20T12:50:39.758Z,22.00
2022-10-20T12:54:34.758Z,22.00
2022-10-20T12:58:18.357Z,22.00
2022-10-20T13:02:08.389Z,22.00
2022-10-20T13:05:47.850Z,22.00
2022-10-20T13:09:20.984Z,22.00
2022-10-20T13:12:43.066Z,22.00
2022-10-20T13:16:15.473Z,22.00
2022-10-20T13:19:46.442Z,22.00
2022-10-20T13:23:18.452Z,21.90
2022-10-20T13:26:43.561Z,21.90
2022-10-20T13:30:10.226Z,21.90
2022-10-20T13:34:04.082Z,21.90
2022-10-20T13:37:43.939Z,21.90
2022-10-20T13:41:16.377Z,21.90
2022-10-20T13:44:57.148Z,21.90
2022-10-20T13:48:40.317Z,21.90
2022-10-20T13:52:16.207Z,22.00
2022-10-20T13:56:04.934Z,22.00
2022-10-20T13:59:30.085Z,22.00
2022-10-20T14:02:53.818Z,22.00
2022-10-20T14:06:37.246Z,22.00
2022-10-20T14:09:59.850Z,22.10
2022-10-20T14:13:25.387Z,22.10
2022-10-20T14:16:55.973Z,22.10
2022-10-20T14:20:20.482Z,22.10
2022-10-20T14:23:44.267Z,22.10
2022-10-20T14:27:17.278Z,22.00
2022-10-20T14:30:41.201Z,22.00
2022-10-20T14:34:03.591Z,22.00
2022-10-20T14:37:38.828Z,22.00
2022-10-20T14:41:03.104Z,22.00
2022-10-20T14:44:31.421Z,22.00
2022-10-20T14:47:56.319Z,22.00
2022-10-20T14:52:00.747Z,22.00
2022-10-20T14:55:30.520Z,21.90
2022-10-20T14:58:59.980Z,21.90
2022-10-20T15:02:30.518Z,21.90
2022-10-20T15:05:52.876Z,21.90
2022-10-20T15:09:31.882Z,21.90
2022-10-20T15:12:55.736Z,21.90
2022-10-20T15:16:33.014Z,21.90
2022-10-20T15:19:55.170Z,21.90
2022-10-20T15:23:25.838Z,21.90
2022-10-20T15:26:47.977Z,21.90
2022-10-20T15:30:18.334Z,21.90
2022-10-20T15:33:41.472Z,21.90
2022-10-20T15:37:03.815Z,21.90
2022-10-20T15:40:25.957Z,21.90
2022-10-20T15:43:48.496Z,21.80
2022-10-20T15:47:11.230Z,21.90
2022-10-20T15:50:33.555Z,21.90
2022-10-20T15:53:56.706Z,21.90
2022-10-20T15:57:18.891Z,21.90
2022-10-20T16:00:41.133Z,21.90
2022-10-20T16:04:16.645Z,21.90
2022-10-20T16:07:39.315Z,21.90
2022-10-20T16:11:04.686Z,21.70
2022-10-20T16:14:26.838Z,21.70
2022-10-20T16:21:16.179Z,21.50
2022-10-20T16:24:38.329Z,21.50
2022-10-20T16:28:00.493Z,21.40
2022-10-20T16:31:22.792Z,21.30
2022-10-20T16:34:45.078Z,21.30
2022-10-20T16:38:07.232Z,21.30
2022-10-20T16:41:29.382Z,21.30
2022-10-20T16:44:51.687Z,21.20
2022-10-20T16:48:13.795Z,21.10
2022-10-20T16:51:35.986Z,21.10
2022-10-20T16:54:58.193Z,21.30
2022-10-20T16:58:20.455Z,21.40
2022-10-20T17:01:44.592Z,21.50
2022-10-20T17:05:09.276Z,21.60
2022-10-20T17:08:32.134Z,21.70
2022-10-20T17:11:54.322Z,21.70
2022-10-20T17:15:16.551Z,21.80
2022-10-20T17:18:38.855Z,21.90
2022-10-20T17:22:01.037Z,21.90
2022-10-20T17:25:23.366Z,22.00
2022-10-20T17:28:46.130Z,22.00
2022-10-20T17:32:08.292Z,22.10
2022-10-20T17:35:30.425Z,22.10
2022-10-20T17:39:02.761Z,22.10
2022-10-20T17:42:24.867Z,22.10
2022-10-20T17:45:57.782Z,22.20
2022-10-20T17:49:19.941Z,22.20
2022-10-20T17:52:42.115Z,22.20
2022-10-20T17:56:07.173Z,22.20
2022-10-20T17:59:34.705Z,22.10
2022-10-20T18:03:04.573Z,22.10
2022-10-20T18:06:33.607Z,22.20
2022-10-20T18:09:56.385Z,22.20
2022-10-20T18:13:18.569Z,22.20
2022-10-20T18:16:40.953Z,22.20
2022-10-20T18:20:04.045Z,22.20
2022-10-20T18:23:27.835Z,22.20
2022-10-20T18:26:50.010Z,22.20
2022-10-20T18:30:12.114Z,22.20
2022-10-20T18:33:34.759Z,22.20
2022-10-20T18:36:57.049Z,22.20
2022-10-20T18:40:20.528Z,22.20
2022-10-20T18:43:45.396Z,22.30
2022-10-20T18:47:07.582Z,22.30
2022-10-20T18:50:30.023Z,22.30
2022-10-20T18:53:55.161Z,22.30
2022-10-20T18:57:17.164Z,22.30
2022-10-20T19:00:39.331Z,22.30
2022-10-20T19:04:02.115Z,22.30
2022-10-20T19:07:24.284Z,22.30
2022-10-20T19:10:46.373Z,22.20
2022-10-20T19:14:09.845Z,22.20
2022-10-20T19:17:32.826Z,22.10
2022-10-20T19:21:00.202Z,22.10
2022-10-20T19:24:24.366Z,22.10
2022-10-20T19:27:46.540Z,22.10
2022-10-20T19:31:25.224Z,22.10
2022-10-20T19:34:47.335Z,22.10
2022-10-20T19:38:09.471Z,22.10
2022-10-20T19:41:31.672Z,22.00
2022-10-20T19:44:55.285Z,22.00
2022-10-20T19:48:17.528Z,22.00
2022-10-20T19:51:40.361Z,22.00
2022-10-20T19:55:02.530Z,22.00
2022-10-20T19:58:24.678Z,21.90
2022-10-20T20:01:49.525Z,21.90
2022-10-20T20:05:11.713Z,21.90
2022-10-20T20:08:34.957Z,21.90
2022-10-20T20:11:57.288Z,22.00
2022-10-20T20:15:19.558Z,22.00
2022-10-20T20:18:41.680Z,21.90
2022-10-20T20:22:03.959Z,21.90
2022-10-20T20:25:26.090Z,21.90
2022-10-20T20:28:48.493Z,21.90
2022-10-20T20:32:10.661Z,21.90
2022-10-20T20:35:32.979Z,21.90
2022-10-20T20:38:58.146Z,21.90
2022-10-20T20:42:20.539Z,21.90
2022-10-20T20:45:44.389Z,22.00
2022-10-20T20:49:06.793Z,22.00
2022-10-20T20:52:31.850Z,21.90
2022-10-20T20:55:54.545Z,21.90
2022-10-20T20:59:16.747Z,21.90
2022-10-20T21:02:38.894Z,21.90
2022-10-20T21:06:19.213Z,22.00
2022-10-20T21:09:41.396Z,21.90
2022-10-20T21:13:03.844Z,21.90
2022-10-20T21:16:34.927Z,21.90
2022-10-20T21:19:57.611Z,21.90
2022-10-20T21:23:19.781Z,21.90
2022-10-20T21:26:42.117Z,21.90
2022-10-20T21:30:04.579Z,21.90
2022-10-20T21:33:26.696Z,21.90
2022-10-20T21:36:48.883Z,21.90
2022-10-20T21:40:11.427Z,21.90
2022-10-20T21:43:35.118Z,21.90
2022-10-20T21:46:57.354Z,21.80
2022-10-20T21:50:19.545Z,21.90
2022-10-20T21:53:41.841Z,21.80
2022-10-20T21:57:04.143Z,21.80
2022-10-20T22:00:26.252Z,21.80
2022-10-20T22:03:50.103Z,21.80
2022-10-20T22:07:12.285Z,21.80
2022-10-20T22:10:37.053Z,21.80
2022-10-20T22:14:02.430Z,21.80
2022-10-20T22:17:24.573Z,21.80
2022-10-20T22:20:46.734Z,21.80
2022-10-20T22:24:09.015Z,21.80
2022-10-20T22:27:41.711Z,21.80
2022-10-20T22:31:05.902Z,21.80
2022-10-20T22:34:28.147Z,21.70
2022-10-20T22:37:50.417Z,21.80
2022-10-20T22:41:13.252Z,21.80
2022-10-20T22:44:35.368Z,21.80
2022-10-20T22:47:57.641Z,21.70
2022-10-20T22:51:19.850Z,21.70
2022-10-20T22:54:42.069Z,21.70
2022-10-20T22:58:04.944Z,21.70
2022-10-20T23:01:27.272Z,21.70
2022-10-20T23:04:49.477Z,21.70
2022-10-20T23:08:11.669Z,21.70
2022-10-20T23:11:34.451Z,21.70
2022-10-20T23:14:56.889Z,21.70
2022-10-20T23:18:20.067Z,21.70
2022-10-20T23:21:42.195Z,21.70
2022-10-20T23:25:04.563Z,21.70
2022-10-20T23:28:26.734Z,21.70
2022-10-20T23:31:49.065Z,21.70
2022-10-20T23:35:11.277Z,21.70
2022-10-20T23:38:33.578Z,21.70
2022-10-20T23:41:55.845Z,21.70
2022-10-20T23:45:18.150Z,21.70
2022-10-20T23:48:40.730Z,21.70
2022-10-20T23:52:02.982Z,21.70
2022-10-20T23:55:25.162Z,21.70
2022-10-20T23:58:47.404Z,21.70
